17.5°F
Current conditions from King Hill
Updated every 5 minutes
 
  Wednesday April 16, 2014

Station Historical Data
Daily Summary for July 11, 2012 Units:  Metric    English   Both
« Previous Day
Next Day »
Daily Weekly Monthly Yearly Custom
  High: Low: Average:
Temperature: 28.7 °C 10.7 °C 19.6 °C
Dew Point: 16.8 °C 9.8 °C 12.9 °C
Humidity: 96% 38% 69%
Wind Speed: 8km/h 0km/h 2.7km/h
Wind Gust: 14.5km/h - -
Wind- - West
Pressure: 1020.5 hPa 1017.2 hPa -
Precipitation: 0 mm    
Historical Graphs
 
 
Tabular Data for July 11, 2012
Time Temperature Dew Point Pressure Wind Wind Speed Wind Gust Humidity Daily Rainfall
00:04 13.2 °C 11.1 °C 1017.2 hPa Calm     87% 0 mm
00:09 13.1 °C 10.9 °C 1017.2 hPa Calm     87% 0 mm
00:14 13.1 °C 11.1 °C 1017.2 hPa Calm     88% 0 mm
00:19 13 °C 11.1 °C 1017.2 hPa Calm     88% 0 mm
00:24 13 °C 11.1 °C 1017.2 hPa Calm     88% 0 mm
00:29 13 °C 11.2 °C 1017.2 hPa Calm     89% 0 mm
00:34 13 °C 11.2 °C 1017.2 hPa Calm     89% 0 mm
00:39 13 °C 11.2 °C 1017.2 hPa Calm     89% 0 mm
00:44 13.1 °C 11.3 °C 1017.2 hPa Calm     89% 0 mm
00:49 13 °C 11.2 °C 1017.5 hPa Calm     89% 0 mm
00:54 12.9 °C 11.2 °C 1017.5 hPa Calm     89% 0 mm
00:59 12.9 °C 11.2 °C 1017.5 hPa Calm     89% 0 mm
01:04 12.8 °C 11.1 °C 1017.5 hPa Calm     89% 0 mm
01:09 12.8 °C 11.1 °C 1017.5 hPa Calm     89% 0 mm
01:14 12.7 °C 10.9 °C 1017.5 hPa Calm     89% 0 mm
01:19 12.4 °C 10.7 °C 1017.8 hPa Calm     89% 0 mm
01:24 12.4 °C 10.6 °C 1017.8 hPa Calm     89% 0 mm
01:29 12.3 °C 10.7 °C 1017.8 hPa Calm     90% 0 mm
01:34 12.3 °C 10.5 °C 1017.8 hPa Calm     89% 0 mm
01:39 12.2 °C 10.6 °C 1017.8 hPa Calm     90% 0 mm
01:44 12.2 °C 10.6 °C 1017.8 hPa Calm     90% 0 mm
01:49 12.2 °C 10.6 °C 1017.8 hPa Calm     90% 0 mm
01:54 12.1 °C 10.7 °C 1017.8 hPa Calm     91% 0 mm
01:59 12.1 °C 10.7 °C 1017.8 hPa Calm     91% 0 mm
02:04 11.9 °C 10.3 °C 1017.8 hPa Calm     90% 0 mm
02:09 11.8 °C 10.3 °C 1018.2 hPa Calm     91% 0 mm
02:14 11.8 °C 10.3 °C 1018.2 hPa Calm     91% 0 mm
02:19 11.8 °C 10.3 °C 1018.2 hPa Calm     91% 0 mm
02:24 11.7 °C 10.3 °C 1017.8 hPa Calm     91% 0 mm
02:29 11.6 °C 10.2 °C 1017.8 hPa Calm     91% 0 mm
02:34 11.6 °C 10.1 °C 1017.8 hPa Calm     91% 0 mm
02:40 11.5 °C 10.1 °C 1017.8 hPa Calm     91% 0 mm
02:49 11.4 °C 10.2 °C 1017.8 hPa Calm     92% 0 mm
02:54 11.4 °C 10.1 °C 1017.8 hPa Calm     92% 0 mm
02:59 11.3 °C 10.1 °C 1017.8 hPa Calm     92% 0 mm
03:04 11.3 °C 10.1 °C 1017.8 hPa Calm     92% 0 mm
03:09 11.3 °C 10 °C 1017.8 hPa Calm     92% 0 mm
03:14 11.3 °C 10.2 °C 1017.8 hPa Calm     93% 0 mm
03:19 11.3 °C 10.2 °C 1017.8 hPa Calm     93% 0 mm
03:24 11.3 °C 10.2 °C 1017.8 hPa Calm     93% 0 mm
03:29 11.2 °C 10.1 °C 1018.2 hPa Calm     93% 0 mm
03:34 11.2 °C 10.1 °C 1018.2 hPa Calm     93% 0 mm
03:39 11.2 °C 10.1 °C 1018.2 hPa Calm     93% 0 mm
03:45 11.2 °C 10.1 °C 1018.5 hPa Calm     93% 0 mm
03:54 11.1 °C 9.9 °C 1018.5 hPa Calm     93% 0 mm
03:59 11.1 °C 10 °C 1018.5 hPa Calm     93% 0 mm
04:04 11.2 °C 10.2 °C 1018.5 hPa Calm     94% 0 mm
04:09 11.2 °C 10.2 °C 1018.5 hPa Calm     94% 0 mm
04:14 11.1 °C 10.2 °C 1018.5 hPa Calm     94% 0 mm
04:19 11 °C 10.1 °C 1018.8 hPa Calm     94% 0 mm
04:24 10.9 °C 10 °C 1018.8 hPa Calm     94% 0 mm
04:29 10.9 °C 9.9 °C 1018.8 hPa Calm     94% 0 mm
04:34 10.9 °C 9.9 °C 1018.8 hPa Calm     94% 0 mm
04:39 10.8 °C 9.8 °C 1018.8 hPa Calm     94% 0 mm
04:44 10.7 °C 9.8 °C 1018.8 hPa Calm     94% 0 mm
04:49 10.8 °C 9.8 °C 1018.8 hPa Calm     94% 0 mm
04:54 10.8 °C 9.8 °C 1018.8 hPa Calm     94% 0 mm
04:59 10.8 °C 9.9 °C 1018.8 hPa Calm     94% 0 mm
05:04 10.9 °C 10.1 °C 1019.2 hPa Calm     95% 0 mm
05:09 10.8 °C 10.1 °C 1019.2 hPa Calm     95% 0 mm
05:14 10.8 °C 10 °C 1019.2 hPa Calm     95% 0 mm
05:19 10.8 °C 10 °C 1019.2 hPa Calm     95% 0 mm
05:24 10.8 °C 10.1 °C 1019.2 hPa Calm     95% 0 mm
05:29 10.8 °C 10 °C 1019.5 hPa Calm     95% 0 mm
05:34 10.8 °C 10 °C 1019.5 hPa Calm     95% 0 mm
05:39 10.7 °C 9.9 °C 1019.5 hPa Calm     95% 0 mm
05:44 10.8 °C 10 °C 1019.5 hPa Calm     95% 0 mm
05:49 10.8 °C 10 °C 1019.5 hPa Calm     95% 0 mm
05:54 10.8 °C 10 °C 1019.5 hPa Calm     95% 0 mm
05:59 10.8 °C 10 °C 1019.5 hPa Calm     95% 0 mm
06:04 10.8 °C 10.1 °C 1019.5 hPa Calm     95% 0 mm
06:09 10.9 °C 10.2 °C 1019.9 hPa Calm     95% 0 mm
06:14 11.1 °C 10.3 °C 1019.9 hPa Calm     95% 0 mm
06:19 11.2 °C 10.4 °C 1019.9 hPa Calm     95% 0 mm
06:24 11.3 °C 10.6 °C 1019.9 hPa Calm     95% 0 mm
06:29 11.5 °C 10.7 °C 1019.9 hPa Calm     95% 0 mm
06:34 11.6 °C 10.8 °C 1019.9 hPa Calm     95% 0 mm
06:39 11.8 °C 11.1 °C 1019.9 hPa Calm     95% 0 mm
06:44 12.1 °C 11.4 °C 1019.9 hPa Calm     96% 0 mm
06:50 12.4 °C 11.8 °C 1020.2 hPa Calm     96% 0 mm
06:59 12.9 °C 12.3 °C 1020.2 hPa Calm   1.6 km/h 96% 0 mm
07:04 13.2 °C 12.6 °C 1020.2 hPa Calm   1.6 km/h 96% 0 mm
07:09 13.4 °C 12.8 °C 1020.2 hPa Calm     96% 0 mm
07:14 13.7 °C 13.1 °C 1020.2 hPa Calm     96% 0 mm
07:19 14.1 °C 13.4 °C 1020.2 hPa Calm   1.6 km/h 96% 0 mm
07:24 14.3 °C 13.7 °C 1020.2 hPa Calm   1.6 km/h 96% 0 mm
07:29 14.6 °C 13.9 °C 1020.2 hPa Calm   1.6 km/h 96% 0 mm
07:34 14.7 °C 14.1 °C 1020.2 hPa Calm   1.6 km/h 96% 0 mm
07:39 14.9 °C 14.3 °C 1020.2 hPa Calm   1.6 km/h 96% 0 mm
07:44 15 °C 14.4 °C 1020.2 hPa SW 1.6 km/h 6.4 km/h 96% 0 mm
07:49 15.1 °C 14.5 °C 1020.2 hPa SSW 1.6 km/h 6.4 km/h 96% 0 mm
07:54 15.4 °C 14.6 °C 1020.5 hPa Calm   6.4 km/h 95% 0 mm
07:59 15.8 °C 14.9 °C 1020.5 hPa Calm   6.4 km/h 94% 0 mm
08:04 16.3 °C 15.1 °C 1020.5 hPa Calm     92% 0 mm
08:09 17 °C 15 °C 1020.5 hPa Calm     88% 0 mm
08:14 17.6 °C 14.8 °C 1020.5 hPa Calm   3.2 km/h 84% 0 mm
08:19 18.2 °C 14.4 °C 1020.5 hPa Calm   3.2 km/h 79% 0 mm
08:24 18.8 °C 15.1 °C 1020.5 hPa Calm   6.4 km/h 79% 0 mm
08:29 19.3 °C 15.2 °C 1020.5 hPa Calm   6.4 km/h 77% 0 mm
08:34 19.7 °C 14.7 °C 1020.5 hPa SSW 1.6 km/h 12.9 km/h 73% 0 mm
08:39 19.8 °C 14.2 °C 1020.5 hPa WSW 1.6 km/h 12.9 km/h 70% 0 mm
08:44 20.1 °C 15.1 °C 1020.5 hPa Calm   9.7 km/h 73% 0 mm
08:49 20.6 °C 15.4 °C 1020.5 hPa Calm   8 km/h 72% 0 mm
08:54 20.8 °C 14.7 °C 1020.5 hPa Calm   3.2 km/h 68% 0 mm
08:59 21.2 °C 15.7 °C 1020.5 hPa Calm   3.2 km/h 71% 0 mm
09:04 21.4 °C 15.1 °C 1020.5 hPa Calm   1.6 km/h 67% 0 mm
09:09 21.7 °C 15.6 °C 1020.5 hPa Calm   4.8 km/h 68% 0 mm
09:14 21.7 °C 15.1 °C 1020.5 hPa Calm   11.3 km/h 66% 0 mm
09:19 21.8 °C 15.2 °C 1020.5 hPa Calm   11.3 km/h 66% 0 mm
09:24 22 °C 15.8 °C 1020.5 hPa Calm   8 km/h 68% 0 mm
09:29 22.1 °C 15.7 °C 1020.5 hPa Calm   6.4 km/h 67% 0 mm
09:34 22.3 °C 15.2 °C 1020.5 hPa SW 1.6 km/h 6.4 km/h 64% 0 mm
09:39 22.4 °C 15.8 °C 1020.5 hPa Calm   9.7 km/h 66% 0 mm
09:44 22.6 °C 15.2 °C 1020.5 hPa Calm   9.7 km/h 63% 0 mm
09:49 22.6 °C 15.4 °C 1020.5 hPa Calm   8 km/h 64% 0 mm
09:54 22.9 °C 15.8 °C 1020.5 hPa Calm   8 km/h 64% 0 mm
09:59 23.3 °C 15.8 °C 1020.5 hPa Calm   8 km/h 63% 0 mm
10:04 23.8 °C 15.6 °C 1020.5 hPa Calm   1.6 km/h 60% 0 mm
10:09 23.9 °C 16.5 °C 1020.2 hPa Calm   8 km/h 63% 0 mm
10:14 24.2 °C 14.3 °C 1020.2 hPa Calm   8 km/h 54% 0 mm
10:19 24.4 °C 14.5 °C 1020.2 hPa Calm   1.6 km/h 54% 0 mm
10:24 24.4 °C 13.9 °C 1020.5 hPa Calm   1.6 km/h 52% 0 mm
10:29 24.3 °C 13.5 °C 1020.2 hPa Calm   8 km/h 51% 0 mm
10:34 24.5 °C 13.4 °C 1020.2 hPa Calm   8 km/h 50% 0 mm
10:39 24.8 °C 13.9 °C 1020.2 hPa Calm   1.6 km/h 51% 0 mm
10:44 24.9 °C 14.4 °C 1020.5 hPa SSW 4.8 km/h 11.3 km/h 52% 0 mm
10:49 25.2 °C 16.1 °C 1020.5 hPa SW 1.6 km/h 11.3 km/h 57% 0 mm
10:54 25.1 °C 14.5 °C 1020.2 hPa Calm   11.3 km/h 52% 0 mm
10:59 24.9 °C 13.2 °C 1020.5 hPa WNW 1.6 km/h 11.3 km/h 48% 0 mm
11:04 24.7 °C 13.6 °C 1020.5 hPa West 3.2 km/h 11.3 km/h 50% 0 mm
11:09 24.9 °C 14.1 °C 1020.5 hPa NW 1.6 km/h 9.7 km/h 51% 0 mm
11:14 25.1 °C 14.2 °C 1020.5 hPa Calm   6.4 km/h 51% 0 mm
11:19 25.3 °C 15 °C 1020.5 hPa Calm   6.4 km/h 53% 0 mm
11:24 25.2 °C 13.1 °C 1020.5 hPa West 3.2 km/h 8 km/h 47% 0 mm
11:29 25.2 °C 14 °C 1020.5 hPa West 1.6 km/h 8 km/h 50% 0 mm
11:34 25.2 °C 12.1 °C 1020.5 hPa Calm   8 km/h 44% 0 mm
11:39 25.5 °C 13.4 °C 1020.5 hPa WSW 3.2 km/h 8 km/h 47% 0 mm
11:44 25.3 °C 13.9 °C 1020.5 hPa WNW 3.2 km/h 9.7 km/h 49% 0 mm
11:49 25.3 °C 11.4 °C 1020.5 hPa NW 3.2 km/h 9.7 km/h 42% 0 mm
11:54 25.6 °C 12.8 °C 1020.5 hPa West 1.6 km/h 8 km/h 45% 0 mm
12:00 25.4 °C 12.7 °C 1020.5 hPa SW 3.2 km/h 11.3 km/h 45% 0 mm
12:09 25.8 °C 14.3 °C 1020.5 hPa WNW 8 km/h 14.5 km/h 49% 0 mm
12:14 25.8 °C 13.3 °C 1020.5 hPa Calm   14.5 km/h 46% 0 mm
12:19 26.1 °C 13.6 °C 1020.5 hPa Calm   6.4 km/h 46% 0 mm
12:24 26.3 °C 14.1 °C 1020.5 hPa Calm   4.8 km/h 47% 0 mm
12:29 26.4 °C 13.2 °C 1020.5 hPa Calm   8 km/h 44% 0 mm
12:34 26.6 °C 14.3 °C 1020.5 hPa NW 1.6 km/h 9.7 km/h 47% 0 mm
12:39 26.3 °C 12.3 °C 1020.2 hPa Calm   11.3 km/h 42% 0 mm
12:44 26.1 °C 11.1 °C 1020.2 hPa NNW 1.6 km/h 11.3 km/h 39% 0 mm
12:49 26.1 °C 12.9 °C 1020.2 hPa Calm   8 km/h 44% 0 mm
12:54 26.3 °C 11.7 °C 1020.2 hPa Calm   1.6 km/h 40% 0 mm
12:59 26.7 °C 12.7 °C 1020.2 hPa Calm   1.6 km/h 42% 0 mm
13:04 27.1 °C 12.7 °C 1019.9 hPa Calm   1.6 km/h 41% 0 mm
13:09 27.1 °C 13.4 °C 1019.9 hPa Calm   8 km/h 43% 0 mm
13:14 27.3 °C 12.1 °C 1019.9 hPa Calm   8 km/h 39% 0 mm
13:19 27.1 °C 13.8 °C 1019.9 hPa NW 1.6 km/h 9.7 km/h 44% 0 mm
13:24 27.1 °C 13.4 °C 1019.9 hPa NE 1.6 km/h 11.3 km/h 43% 0 mm
13:29 27.2 °C 14.3 °C 1019.9 hPa Calm   11.3 km/h 45% 0 mm
13:34 27.6 °C 13.9 °C 1019.9 hPa WNW 1.6 km/h 8 km/h 43% 0 mm
13:39 27.4 °C 14.1 °C 1019.9 hPa NW 4.8 km/h 9.7 km/h 44% 0 mm
13:44 27.1 °C 12 °C 1019.9 hPa Calm   9.7 km/h 39% 0 mm
13:49 27.2 °C 12.8 °C 1019.9 hPa NW 1.6 km/h 11.3 km/h 41% 0 mm
13:54 27.2 °C 13.5 °C 1019.9 hPa WNW 4.8 km/h 12.9 km/h 43% 0 mm
13:59 27.3 °C 13.3 °C 1019.5 hPa Calm   12.9 km/h 42% 0 mm
14:04 27.2 °C 11.6 °C 1019.5 hPa West 1.6 km/h 9.7 km/h 38% 0 mm
14:09 27.1 °C 13.4 °C 1019.5 hPa Calm   9.7 km/h 43% 0 mm
14:14 27.1 °C 12.7 °C 1019.5 hPa Calm   1.6 km/h 41% 0 mm
14:19 27.1 °C 11.6 °C 1019.5 hPa Calm     38% 0 mm
14:24 27.2 °C 13.2 °C 1019.5 hPa Calm   1.6 km/h 42% 0 mm
14:29 27.2 °C 14.2 °C 1019.5 hPa Calm   1.6 km/h 45% 0 mm
14:34 27.3 °C 13.7 °C 1019.5 hPa Calm   1.6 km/h 43% 0 mm
14:44 27.4 °C 13.4 °C 1019.5 hPa Calm   11.3 km/h 42% 0 mm
14:49 27.3 °C 13.7 °C 1019.2 hPa Calm   11.3 km/h 43% 0 mm
14:54 27.5 °C 13.1 °C 1019.2 hPa NW 4.8 km/h 12.9 km/h 41% 0 mm
14:59 27.4 °C 14.1 °C 1019.5 hPa WNW 3.2 km/h 12.9 km/h 44% 0 mm
15:04 27.7 °C 14.3 °C 1019.5 hPa Calm   12.9 km/h 44% 0 mm
15:09 27.9 °C 14.2 °C 1019.2 hPa West 1.6 km/h 6.4 km/h 43% 0 mm
15:14 27.9 °C 13.5 °C 1019.2 hPa NW 3.2 km/h 9.7 km/h 41% 0 mm
15:19 27.9 °C 13.8 °C 1019.2 hPa Calm   9.7 km/h 42% 0 mm
15:24 28.1 °C 13.2 °C 1019.2 hPa Calm   3.2 km/h 40% 0 mm
15:29 28.3 °C 14.9 °C 1019.2 hPa Calm   3.2 km/h 44% 0 mm
15:34 28.3 °C 13 °C 1019.2 hPa WNW 4.8 km/h 8 km/h 39% 0 mm
15:39 27.9 °C 14.2 °C 1019.2 hPa Calm   11.3 km/h 43% 0 mm
15:44 28 °C 15 °C 1019.2 hPa Calm   11.3 km/h 45% 0 mm
15:49 28.3 °C 15.6 °C 1019.2 hPa NW 1.6 km/h 8 km/h 46% 0 mm
15:54 28.2 °C 15.8 °C 1019.2 hPa Calm   11.3 km/h 47% 0 mm
15:59 28.4 °C 13.5 °C 1019.2 hPa Calm   11.3 km/h 40% 0 mm
16:04 28.6 °C 15.6 °C 1019.2 hPa Calm   4.8 km/h 45% 0 mm
16:09 28.3 °C 13.8 °C 1019.2 hPa West 3.2 km/h 8 km/h 41% 0 mm
16:14 28.2 °C 13.7 °C 1019.2 hPa Calm   8 km/h 41% 0 mm
16:19 28.1 °C 14.4 °C 1018.8 hPa NW 3.2 km/h 11.3 km/h 43% 0 mm
16:24 28.2 °C 14.8 °C 1019.2 hPa Calm   11.3 km/h 44% 0 mm
16:29 28.2 °C 14.1 °C 1019.2 hPa Calm   4.8 km/h 42% 0 mm
16:34 28.1 °C 13.3 °C 1018.8 hPa Calm   4.8 km/h 40% 0 mm
16:39 28.4 °C 15 °C 1018.8 hPa Calm   3.2 km/h 44% 0 mm
17:00 28.4 °C 13.9 °C 1018.8 hPa Calm     41% 0 mm
17:05 28.6 °C 13.7 °C 1018.8 hPa Calm     40% 0 mm
17:10 28.6 °C 13.3 °C 1018.8 hPa Calm   3.2 km/h 39% 0 mm
17:15 28.6 °C 13.7 °C 1018.8 hPa Calm   3.2 km/h 40% 0 mm
17:20 28.7 °C 14.9 °C 1018.8 hPa Calm   1.6 km/h 43% 0 mm
17:25 28.7 °C 13.8 °C 1018.8 hPa Calm   1.6 km/h 40% 0 mm
17:30 28.7 °C 14.1 °C 1018.8 hPa Calm   1.6 km/h 41% 0 mm
17:35 28.6 °C 15.6 °C 1018.8 hPa Calm   4.8 km/h 45% 0 mm
17:40 28.6 °C 13.7 °C 1018.5 hPa Calm   4.8 km/h 40% 0 mm
17:45 28.7 °C 14.1 °C 1018.5 hPa Calm     41% 0 mm
17:50 28.6 °C 14.4 °C 1018.5 hPa Calm   1.6 km/h 42% 0 mm
17:55 28.4 °C 14.3 °C 1018.5 hPa Calm   1.6 km/h 42% 0 mm
18:00 28.2 °C 14.1 °C 1018.5 hPa Calm   1.6 km/h 42% 0 mm
18:05 27.8 °C 15.8 °C 1018.5 hPa Calm   1.6 km/h 48% 0 mm
18:10 27.2 °C 15.2 °C 1018.5 hPa Calm     48% 0 mm
18:15 26.9 °C 14 °C 1018.5 hPa Calm     45% 0 mm
18:20 27 °C 15.4 °C 1018.5 hPa Calm   1.6 km/h 49% 0 mm
18:25 27.2 °C 15.8 °C 1018.5 hPa Calm   1.6 km/h 50% 0 mm
18:30 27.3 °C 15.7 °C 1018.5 hPa Calm     49% 0 mm
18:35 27.3 °C 15.7 °C 1018.5 hPa Calm     49% 0 mm
18:40 27.6 °C 15.6 °C 1018.5 hPa Calm     48% 0 mm
18:45 27.8 °C 16.4 °C 1018.5 hPa Calm     50% 0 mm
18:50 27.8 °C 15.2 °C 1018.5 hPa Calm     46% 0 mm
18:55 27.7 °C 15.7 °C 1018.2 hPa Calm     48% 0 mm
19:00 27.4 °C 16.1 °C 1018.2 hPa Calm     50% 0 mm
19:05 27.2 °C 15.8 °C 1018.2 hPa Calm   1.6 km/h 50% 0 mm
19:10 26.8 °C 16.8 °C 1018.2 hPa Calm   1.6 km/h 54% 0 mm
19:15 26.5 °C 16.2 °C 1018.2 hPa Calm     53% 0 mm
19:20 26.2 °C 16.2 °C 1018.2 hPa Calm     54% 0 mm
19:25 25.8 °C 16.6 °C 1018.2 hPa Calm     57% 0 mm
19:30 25.2 °C 15.6 °C 1018.2 hPa Calm     55% 0 mm
19:35 24.7 °C 16.4 °C 1018.2 hPa Calm     60% 0 mm
19:40 24.2 °C 16.7 °C 1018.2 hPa Calm     63% 0 mm
19:45 23.7 °C 15.5 °C 1018.2 hPa Calm     60% 0 mm
19:50 22.9 °C 14.4 °C 1018.2 hPa Calm     59% 0 mm
19:55 22.1 °C 14.2 °C 1018.5 hPa Calm     61% 0 mm
20:00 21.4 °C 14.1 °C 1018.5 hPa Calm     63% 0 mm
20:05 20.9 °C 14.3 °C 1018.5 hPa Calm     66% 0 mm
20:10 20.5 °C 14.6 °C 1018.2 hPa Calm     69% 0 mm
20:15 20 °C 13.9 °C 1018.5 hPa Calm     68% 0 mm
20:20 19.6 °C 13.5 °C 1018.5 hPa Calm     68% 0 mm
20:25 19.3 °C 13.9 °C 1018.5 hPa Calm     71% 0 mm
20:30 18.9 °C 13.8 °C 1018.5 hPa Calm     72% 0 mm
20:35 18.5 °C 13.2 °C 1018.5 hPa Calm     71% 0 mm
20:40 18 °C 12.7 °C 1018.5 hPa Calm     71% 0 mm
20:45 17.7 °C 12.6 °C 1018.5 hPa Calm     72% 0 mm
20:50 17.6 °C 12.5 °C 1018.5 hPa Calm     72% 0 mm
20:55 17.5 °C 12.6 °C 1018.5 hPa Calm     73% 0 mm
21:00 17.3 °C 12.7 °C 1018.5 hPa Calm     74% 0 mm
21:05 17.1 °C 12.7 °C 1018.5 hPa Calm     75% 0 mm
21:10 17.1 °C 12.6 °C 1018.8 hPa Calm     75% 0 mm
21:15 16.9 °C 12.7 °C 1018.8 hPa Calm     76% 0 mm
21:20 16.8 °C 12.5 °C 1018.8 hPa Calm     76% 0 mm
21:25 16.5 °C 12.3 °C 1018.8 hPa Calm     76% 0 mm
21:30 16.3 °C 12.2 °C 1018.8 hPa Calm     77% 0 mm
21:35 16.1 °C 12.1 °C 1018.8 hPa Calm     77% 0 mm
21:40 16.1 °C 12.4 °C 1018.8 hPa Calm     79% 0 mm
21:45 15.9 °C 12.3 °C 1019.2 hPa Calm     79% 0 mm
21:50 15.7 °C 12.3 °C 1019.2 hPa Calm     80% 0 mm
21:55 15.7 °C 12.2 °C 1019.2 hPa Calm     80% 0 mm
22:05 15.8 °C 12.6 °C 1019.2 hPa Calm     81% 0 mm
22:10 16.2 °C 12.7 °C 1019.2 hPa Calm   1.6 km/h 80% 0 mm
22:15 16.3 °C 12.8 °C 1019.2 hPa Calm   1.6 km/h 80% 0 mm
22:20 16.2 °C 12.6 °C 1019.2 hPa Calm     79% 0 mm
22:25 16.1 °C 12.4 °C 1019.2 hPa Calm     79% 0 mm
22:30 15.8 °C 12.2 °C 1019.2 hPa Calm     79% 0 mm
22:35 15.7 °C 12.2 °C 1019.2 hPa Calm     80% 0 mm
22:40 15.5 °C 12.3 °C 1019.2 hPa Calm     81% 0 mm
22:45 15.3 °C 12.2 °C 1019.2 hPa Calm     82% 0 mm
22:50 15.1 °C 12 °C 1019.2 hPa Calm     82% 0 mm
22:55 15 °C 12.1 °C 1019.2 hPa Calm     83% 0 mm
23:00 14.8 °C 12 °C 1019.2 hPa Calm     83% 0 mm
23:05 14.7 °C 12 °C 1019.2 hPa Calm     84% 0 mm
23:10 14.6 °C 11.9 °C 1019.2 hPa Calm     84% 0 mm
23:15 14.5 °C 12 °C 1019.2 hPa Calm     85% 0 mm
23:20 14.4 °C 11.9 °C 1019.2 hPa Calm     85% 0 mm
23:25 14.3 °C 11.8 °C 1019.2 hPa Calm     85% 0 mm
23:30 14.2 °C 11.9 °C 1019.2 hPa Calm     86% 0 mm
23:35 14.1 °C 11.8 °C 1019.2 hPa Calm     86% 0 mm
23:40 14 °C 11.7 °C 1019.2 hPa Calm     86% 0 mm
23:45 13.9 °C 11.6 °C 1019.2 hPa Calm     86% 0 mm
23:50 13.8 °C 11.5 °C 1019.5 hPa Calm     86% 0 mm
23:55 13.7 °C 11.4 °C 1019.2 hPa Calm     86% 0 mm
Westford Weather
Compliments of Weather Underground

 
 
Current Radar Loop:

Copyright © WestfordWeather.net 2007-2014. All rights reserved.